createdAt,value
2022-12-08T00:01:33.923Z,95.53
2022-12-08T00:04:03.512Z,95.62
2022-12-08T00:06:52.945Z,96.24
2022-12-08T00:09:31.994Z,97.33
2022-12-08T00:12:01.997Z,97.02
2022-12-08T00:14:35.877Z,96.71
2022-12-08T00:17:04.058Z,96.38
2022-12-08T00:19:32.819Z,96.28
2022-12-08T00:22:00.495Z,98.01
2022-12-08T00:24:32.610Z,97.05
2022-12-08T00:27:01.065Z,97.66
2022-12-08T00:29:28.980Z,97.38
2022-12-08T00:31:56.699Z,97.40
2022-12-08T00:34:24.359Z,97.08
2022-12-08T00:36:51.620Z,96.58
2022-12-08T00:39:19.187Z,96.04
2022-12-08T00:42:06.033Z,97.03
2022-12-08T00:44:33.228Z,96.81
2022-12-08T00:47:00.889Z,98.66
2022-12-08T00:49:28.102Z,99.86
2022-12-08T00:51:55.492Z,99.57
2022-12-08T00:54:23.833Z,100.00
2022-12-08T00:56:51.343Z,100.00
2022-12-08T00:59:18.958Z,100.00
2022-12-08T01:01:47.311Z,100.00
2022-12-08T01:04:17.043Z,100.00
2022-12-08T01:06:45.553Z,100.00
2022-12-08T01:09:15.359Z,100.00
2022-12-08T01:11:44.614Z,100.00
2022-12-08T01:14:13.733Z,98.30
2022-12-08T01:16:43.851Z,97.74
2022-12-08T01:19:13.085Z,97.08
2022-12-08T01:21:41.315Z,96.50
2022-12-08T01:24:12.664Z,96.63
2022-12-08T01:26:40.457Z,96.18
2022-12-08T01:29:08.455Z,97.15
2022-12-08T01:31:35.826Z,97.38
2022-12-08T01:34:03.387Z,97.77
2022-12-08T01:36:33.014Z,97.41
2022-12-08T01:39:01.608Z,97.67
2022-12-08T01:41:32.192Z,96.93
2022-12-08T01:44:08.379Z,96.03
2022-12-08T01:46:38.892Z,95.70
2022-12-08T01:49:16.046Z,95.32
2022-12-08T01:51:59.227Z,95.31
2022-12-08T01:54:30.772Z,95.80
2022-12-08T01:57:23.565Z,96.61
2022-12-08T01:59:57.107Z,97.35
2022-12-08T02:02:30.404Z,98.27
2022-12-08T02:04:57.959Z,97.68
2022-12-08T02:07:25.711Z,99.30
2022-12-08T02:09:53.966Z,98.47
2022-12-08T02:12:21.722Z,97.76
2022-12-08T02:14:49.551Z,99.50
2022-12-08T02:17:47.993Z,98.88
2022-12-08T02:20:35.288Z,98.92
2022-12-08T02:23:02.505Z,98.64
2022-12-08T02:25:40.595Z,98.54
2022-12-08T02:28:28.287Z,98.64
2022-12-08T02:31:14.395Z,99.29
2022-12-08T02:34:22.993Z,99.70
2022-12-08T02:37:17.716Z,100.00
2022-12-08T02:40:07.428Z,100.00
2022-12-08T02:43:00.860Z,100.00
2022-12-08T02:45:43.937Z,99.61
2022-12-08T02:48:12.795Z,98.96
2022-12-08T02:50:40.142Z,98.88
2022-12-08T02:55:43.358Z,97.84
2022-12-08T02:58:26.803Z,97.28
2022-12-08T03:01:30.102Z,97.71
2022-12-08T03:04:04.805Z,97.92
2022-12-08T03:06:51.754Z,97.46
2022-12-08T03:09:30.530Z,97.58
2022-12-08T03:12:12.941Z,97.58
2022-12-08T03:14:46.721Z,97.28
2022-12-08T03:17:18.315Z,96.53
2022-12-08T03:19:48.310Z,96.67
2022-12-08T03:22:20.007Z,98.58
2022-12-08T03:24:48.509Z,99.24
2022-12-08T03:27:22.464Z,99.27
2022-12-08T03:29:52.312Z,99.05
2022-12-08T03:32:30.031Z,98.02
2022-12-08T03:35:00.910Z,96.31
2022-12-08T03:37:28.948Z,96.15
2022-12-08T03:39:56.652Z,95.73
2022-12-08T03:42:23.935Z,96.06
2022-12-08T03:44:51.810Z,95.59
2022-12-08T03:47:20.419Z,95.17
2022-12-08T03:49:47.934Z,95.23
2022-12-08T03:52:16.030Z,95.08
2022-12-08T03:54:43.449Z,94.55
2022-12-08T03:57:10.726Z,93.83
2022-12-08T03:59:38.473Z,93.94
2022-12-08T04:02:05.846Z,94.19
2022-12-08T04:04:33.735Z,94.43
2022-12-08T04:07:01.078Z,94.64
2022-12-08T04:09:28.450Z,95.40
2022-12-08T04:11:56.334Z,96.65
2022-12-08T04:14:24.636Z,97.61
2022-12-08T04:16:51.933Z,96.96
2022-12-08T04:19:19.960Z,98.26
2022-12-08T04:21:47.311Z,98.05
2022-12-08T04:24:14.715Z,96.74
2022-12-08T04:26:43.456Z,95.84
2022-12-08T04:29:10.749Z,95.04
2022-12-08T04:31:38.403Z,94.60
2022-12-08T04:34:06.164Z,93.45
2022-12-08T04:36:33.632Z,93.54
2022-12-08T04:39:01.091Z,94.01
2022-12-08T04:41:28.715Z,93.67
2022-12-08T04:43:55.949Z,93.53
2022-12-08T04:46:23.281Z,93.12
2022-12-08T04:48:51.345Z,92.61
2022-12-08T04:51:20.921Z,93.49
2022-12-08T04:53:48.584Z,93.68
2022-12-08T04:56:19.207Z,94.52
2022-12-08T04:58:46.943Z,94.55
2022-12-08T05:01:14.935Z,94.95
2022-12-08T05:03:42.646Z,95.75
2022-12-08T05:06:14.314Z,95.15
2022-12-08T05:08:43.071Z,93.94
2022-12-08T05:11:12.806Z,93.21
2022-12-08T05:13:39.962Z,93.78
2022-12-08T05:16:13.737Z,94.01
2022-12-08T05:18:42.215Z,93.25
2022-12-08T05:21:09.752Z,93.62
2022-12-08T05:23:37.393Z,92.40
2022-12-08T05:26:05.232Z,92.55
2022-12-08T05:28:42.277Z,92.30
2022-12-08T05:31:12.363Z,92.27
2022-12-08T05:33:40.672Z,92.12
2022-12-08T05:36:09.315Z,91.44
2022-12-08T05:38:37.122Z,92.66
2022-12-08T05:41:06.297Z,95.64
2022-12-08T05:43:33.931Z,94.67
2022-12-08T05:46:02.047Z,95.81
2022-12-08T05:48:29.375Z,96.27
2022-12-08T05:50:57.066Z,96.08
2022-12-08T05:53:24.911Z,96.28
2022-12-08T05:55:52.288Z,96.33
2022-12-08T05:58:22.217Z,97.42
2022-12-08T06:00:50.874Z,98.53
2022-12-08T06:03:19.701Z,98.94
2022-12-08T06:05:47.715Z,98.72
2022-12-08T06:08:15.240Z,98.37
2022-12-08T06:10:45.245Z,98.36
2022-12-08T06:13:13.779Z,97.92
2022-12-08T06:15:41.491Z,97.25
2022-12-08T06:18:10.252Z,96.75
2022-12-08T06:20:37.646Z,96.55
2022-12-08T06:23:04.946Z,95.94
2022-12-08T06:25:32.730Z,95.71
2022-12-08T06:28:01.376Z,94.42
2022-12-08T06:30:28.909Z,92.76
2022-12-08T06:32:56.616Z,91.44
2022-12-08T06:35:23.953Z,90.34
2022-12-08T06:37:51.956Z,89.36
2022-12-08T06:40:20.219Z,90.54
2022-12-08T06:42:47.883Z,89.47
2022-12-08T06:45:17.350Z,89.25
2022-12-08T06:47:45.044Z,90.38
2022-12-08T06:50:14.083Z,91.89
2022-12-08T06:52:55.740Z,91.90
2022-12-08T06:55:57.312Z,91.96
2022-12-08T06:58:14.559Z,91.80
2022-12-08T07:00:42.338Z,92.83
2022-12-08T07:03:11.304Z,92.87
2022-12-08T07:05:39.272Z,92.60
2022-12-08T07:08:08.972Z,92.71
2022-12-08T07:10:37.216Z,91.79
2022-12-08T07:13:04.727Z,91.12
2022-12-08T07:15:35.102Z,90.82
2022-12-08T07:18:11.639Z,89.18
2022-12-08T07:20:49.472Z,89.40
2022-12-08T07:23:28.095Z,88.41
2022-12-08T07:25:55.948Z,88.62
2022-12-08T07:28:23.308Z,88.11
2022-12-08T07:30:50.729Z,87.54
2022-12-08T07:33:18.477Z,86.58
2022-12-08T07:35:53.687Z,86.07
2022-12-08T07:38:21.314Z,85.95
2022-12-08T07:40:53.350Z,84.06
2022-12-08T07:43:29.736Z,83.62
2022-12-08T07:45:58.328Z,83.19
2022-12-08T07:48:38.217Z,84.04
2022-12-08T07:51:17.600Z,83.75
2022-12-08T07:53:54.150Z,82.88
2022-12-08T07:56:23.263Z,82.55
2022-12-08T07:58:51.179Z,81.18
2022-12-08T08:01:30.213Z,82.70
2022-12-08T08:04:01.987Z,83.12
2022-12-08T08:06:29.372Z,83.58
2022-12-08T08:08:57.029Z,83.57
2022-12-08T08:11:24.766Z,83.94
2022-12-08T08:18:28.912Z,83.30
2022-12-08T08:21:53.959Z,83.85
2022-12-08T08:25:08.905Z,83.87
2022-12-08T08:28:02.337Z,83.34
2022-12-08T08:30:59.704Z,83.02
2022-12-08T08:47:32.826Z,82.55
2022-12-08T08:50:05.531Z,82.76
2022-12-08T08:52:47.397Z,82.05
2022-12-08T08:58:08.695Z,78.77
2022-12-08T09:00:36.586Z,79.70
2022-12-08T09:04:01.458Z,79.65
2022-12-08T09:06:29.748Z,77.72
2022-12-08T09:09:23.536Z,76.31
2022-12-08T09:11:51.871Z,75.88
2022-12-08T09:14:19.404Z,74.77
2022-12-08T09:17:00.758Z,75.15
2022-12-08T09:19:36.271Z,75.38
2022-12-08T09:22:15.260Z,74.62
2022-12-08T09:25:16.344Z,75.44
2022-12-08T09:28:00.157Z,74.79
2022-12-08T09:30:53.572Z,73.23
2022-12-08T09:33:37.779Z,71.63
2022-12-08T09:36:10.519Z,71.18
2022-12-08T09:38:58.083Z,70.86
2022-12-08T09:41:57.566Z,71.78
2022-12-08T09:45:12.310Z,71.51
2022-12-08T09:48:19.695Z,70.26
2022-12-08T09:51:07.068Z,70.29
2022-12-08T09:54:19.994Z,68.68
2022-12-08T09:57:02.429Z,66.63
2022-12-08T10:00:00.316Z,66.28
2022-12-08T10:02:43.952Z,66.08
2022-12-08T10:05:36.841Z,65.18
2022-12-08T10:08:40.714Z,63.53
2022-12-08T10:12:01.872Z,64.60
2022-12-08T10:14:56.214Z,63.55
2022-12-08T10:18:06.419Z,64.88
2022-12-08T10:21:23.408Z,63.45
2022-12-08T10:24:13.575Z,63.39
2022-12-08T10:26:49.868Z,62.49
2022-12-08T10:29:48.061Z,63.44
2022-12-08T10:32:26.166Z,61.93
2022-12-08T10:35:04.921Z,61.30
2022-12-08T10:37:37.382Z,60.57
2022-12-08T10:40:15.865Z,57.31
2022-12-08T10:42:51.740Z,56.91
2022-12-08T10:45:37.573Z,55.84
2022-12-08T10:48:13.586Z,54.03
2022-12-08T10:50:53.200Z,54.82
2022-12-08T10:53:25.195Z,55.26
2022-12-08T10:56:02.243Z,56.43
2022-12-08T10:58:43.956Z,54.67
2022-12-08T11:01:22.164Z,52.66
2022-12-08T11:03:52.587Z,54.08
2022-12-08T11:06:24.095Z,51.35
2022-12-08T11:08:59.660Z,51.78
2022-12-08T11:12:00.746Z,50.45
2022-12-08T11:14:45.952Z,51.29
2022-12-08T11:17:22.405Z,52.49
2022-12-08T11:20:03.797Z,51.98
2022-12-08T11:22:35.299Z,52.27
2022-12-08T11:25:08.810Z,53.45
2022-12-08T11:27:38.881Z,55.64
2022-12-08T11:30:30.058Z,58.55
2022-12-08T11:33:06.815Z,60.29
2022-12-08T11:35:38.833Z,60.73
2022-12-08T11:38:21.675Z,61.37
2022-12-08T11:41:01.313Z,61.61
2022-12-08T11:43:34.865Z,61.99
2022-12-08T11:46:12.984Z,62.05
2022-12-08T11:49:06.951Z,62.53
2022-12-08T11:52:14.120Z,63.67
2022-12-08T11:55:26.739Z,62.97
2022-12-08T11:57:57.450Z,61.70
2022-12-08T12:00:25.558Z,61.49
2022-12-08T12:03:29.949Z,60.77
2022-12-08T12:06:37.608Z,60.68
2022-12-08T12:09:19.583Z,60.34
2022-12-08T12:12:18.520Z,58.53
2022-12-08T12:15:17.651Z,57.77
2022-12-08T12:18:00.147Z,56.71
2022-12-08T12:20:57.260Z,57.16
2022-12-08T12:23:45.074Z,57.47
2022-12-08T12:26:25.363Z,57.73
2022-12-08T12:29:20.980Z,58.44
2022-12-08T12:31:53.736Z,58.26
2022-12-08T12:34:25.174Z,57.50
2022-12-08T12:36:57.785Z,58.21
2022-12-08T12:39:32.474Z,56.02
2022-12-08T12:42:05.523Z,54.07
2022-12-08T12:44:39.774Z,54.25
2022-12-08T12:47:13.278Z,55.75
2022-12-08T12:49:40.592Z,57.67
2022-12-08T12:52:20.470Z,59.18
2022-12-08T12:54:50.958Z,59.74
2022-12-08T12:57:18.633Z,60.96
2022-12-08T12:59:55.822Z,60.92
2022-12-08T13:02:30.963Z,60.60
2022-12-08T13:05:11.680Z,61.68
2022-12-08T13:07:54.330Z,62.03
2022-12-08T13:10:37.545Z,62.61
2022-12-08T13:13:12.366Z,63.06
2022-12-08T13:15:55.049Z,62.81
2022-12-08T13:18:46.595Z,63.48
2022-12-08T13:21:18.695Z,65.05
2022-12-08T13:24:14.120Z,65.55
2022-12-08T13:27:11.144Z,65.69
2022-12-08T13:29:39.620Z,65.81
2022-12-08T13:32:09.933Z,66.97
2022-12-08T13:34:56.445Z,66.75
2022-12-08T13:37:54.510Z,67.04
2022-12-08T13:40:30.428Z,67.22
2022-12-08T13:43:10.020Z,67.47
2022-12-08T13:46:41.840Z,67.35
2022-12-08T13:49:45.348Z,67.78
2022-12-08T13:57:37.018Z,69.18
2022-12-08T14:00:19.748Z,69.97
2022-12-08T14:02:50.222Z,70.87
2022-12-08T14:05:34.608Z,71.78
2022-12-08T14:09:00.062Z,72.37
2022-12-08T14:11:34.338Z,73.60
2022-12-08T14:14:09.796Z,74.17
2022-12-08T14:16:39.889Z,74.28
2022-12-08T14:19:17.911Z,74.38
2022-12-08T14:21:54.745Z,75.14
2022-12-08T14:24:24.615Z,75.83
2022-12-08T14:26:55.039Z,76.45
2022-12-08T14:29:41.693Z,77.21
2022-12-08T14:32:42.884Z,77.28
2022-12-08T14:35:10.580Z,77.24
2022-12-08T14:37:47.567Z,77.95
2022-12-08T14:40:23.547Z,78.74
2022-12-08T14:42:54.454Z,78.79
2022-12-08T14:45:22.295Z,79.49
2022-12-08T14:47:49.670Z,79.67
2022-12-08T14:50:35.869Z,79.19
2022-12-08T14:53:03.980Z,79.83
2022-12-08T14:55:37.198Z,79.65
2022-12-08T14:58:05.476Z,79.79
2022-12-08T15:00:33.663Z,79.85
2022-12-08T15:03:06.782Z,79.49
2022-12-08T15:05:34.529Z,79.85
2022-12-08T15:08:04.102Z,80.19
2022-12-08T15:10:35.618Z,79.99
2022-12-08T15:13:11.042Z,80.01
2022-12-08T15:15:55.970Z,80.07
2022-12-08T15:18:37.664Z,79.77
2022-12-08T15:21:09.184Z,79.65
2022-12-08T15:23:45.164Z,79.74
2022-12-08T15:26:21.788Z,79.77
2022-12-08T15:28:49.949Z,80.18
2022-12-08T15:31:20.034Z,80.20
2022-12-08T15:33:47.960Z,79.94
2022-12-08T15:36:15.679Z,79.83
2022-12-08T15:38:43.484Z,80.35
2022-12-08T15:41:14.952Z,80.12
2022-12-08T15:43:43.120Z,80.67
2022-12-08T15:46:10.787Z,80.60
2022-12-08T15:48:38.389Z,80.67
2022-12-08T15:51:06.396Z,80.09
2022-12-08T15:53:34.045Z,79.28
2022-12-08T15:58:55.543Z,78.06
2022-12-08T16:01:24.010Z,77.80
2022-12-08T16:04:36.999Z,77.58
2022-12-08T16:09:43.637Z,78.57
2022-12-08T16:13:26.865Z,78.49
2022-12-08T16:15:50.020Z,78.49
2022-12-08T16:18:23.316Z,78.66
2022-12-08T16:21:12.357Z,77.84
2022-12-08T16:23:43.172Z,78.52
2022-12-08T16:26:44.412Z,78.70
2022-12-08T16:29:06.080Z,79.03
2022-12-08T16:31:34.079Z,79.84
2022-12-08T16:34:02.728Z,79.88
2022-12-08T16:36:30.019Z,79.27
2022-12-08T16:38:57.654Z,79.91
2022-12-08T16:41:43.413Z,79.89
2022-12-08T16:44:11.170Z,79.85
2022-12-08T16:46:39.326Z,81.89
2022-12-08T16:49:08.913Z,83.43
2022-12-08T16:51:36.821Z,83.63
2022-12-08T16:54:04.286Z,83.47
2022-12-08T16:56:33.492Z,84.14
2022-12-08T16:59:02.481Z,83.76
2022-12-08T17:01:30.231Z,83.45
2022-12-08T17:06:45.550Z,84.02
2022-12-08T17:09:12.930Z,83.64
2022-12-08T17:11:43.459Z,84.56
2022-12-08T17:14:14.928Z,85.38
2022-12-08T17:16:43.255Z,85.94
2022-12-08T17:19:13.659Z,85.95
2022-12-08T17:21:42.168Z,86.20
2022-12-08T17:24:09.499Z,86.38
2022-12-08T17:26:36.961Z,86.65
2022-12-08T17:29:04.793Z,86.28
2022-12-08T17:31:32.794Z,86.57
2022-12-08T17:34:05.608Z,86.00
2022-12-08T17:36:33.275Z,85.65
2022-12-08T17:39:01.350Z,85.52
2022-12-08T17:41:29.637Z,86.65
2022-12-08T17:43:57.870Z,87.55
2022-12-08T17:46:25.501Z,87.71
2022-12-08T17:48:53.099Z,88.59
2022-12-08T17:51:20.771Z,88.76
2022-12-08T17:53:48.110Z,88.20
2022-12-08T17:56:21.073Z,88.71
2022-12-08T18:01:23.402Z,90.47
2022-12-08T18:03:51.658Z,91.52
2022-12-08T18:06:19.216Z,91.16
2022-12-08T18:08:46.737Z,91.51
2022-12-08T18:11:18.198Z,92.25
2022-12-08T18:13:46.785Z,91.89
2022-12-08T18:16:15.925Z,91.76
2022-12-08T18:18:43.977Z,92.40
2022-12-08T18:21:12.245Z,91.89
2022-12-08T18:23:41.652Z,91.98
2022-12-08T18:26:11.695Z,91.34
2022-12-08T18:28:39.726Z,90.77
2022-12-08T18:31:14.958Z,90.02
2022-12-08T18:33:44.739Z,90.35
2022-12-08T18:36:16.795Z,90.17
2022-12-08T18:38:48.022Z,90.63
2022-12-08T18:41:23.636Z,90.30
2022-12-08T18:43:52.081Z,89.71
2022-12-08T18:46:19.970Z,88.60
2022-12-08T18:48:49.208Z,89.26
2022-12-08T18:51:18.208Z,89.01
2022-12-08T18:53:47.700Z,88.37
2022-12-08T18:56:25.391Z,88.93
2022-12-08T18:58:58.435Z,89.40
2022-12-08T19:01:29.015Z,89.07
2022-12-08T19:04:26.668Z,89.18
2022-12-08T19:06:46.591Z,89.43
2022-12-08T19:09:14.410Z,89.68
2022-12-08T19:11:42.936Z,89.44
2022-12-08T19:14:11.108Z,89.99
2022-12-08T19:16:38.880Z,90.69
2022-12-08T19:19:09.554Z,90.43
2022-12-08T19:21:44.580Z,91.17
2022-12-08T19:24:14.156Z,91.89
2022-12-08T19:26:42.740Z,92.64
2022-12-08T19:29:10.611Z,93.52
2022-12-08T19:31:38.453Z,92.70
2022-12-08T19:34:06.634Z,93.09
2022-12-08T19:36:35.753Z,93.10
2022-12-08T19:39:22.960Z,93.22
2022-12-08T19:42:09.744Z,93.62
2022-12-08T19:44:55.687Z,92.74
2022-12-08T19:47:25.406Z,92.70
2022-12-08T19:50:15.566Z,91.52
2022-12-08T19:52:44.185Z,92.08
2022-12-08T19:55:13.034Z,91.16
2022-12-08T19:57:40.392Z,90.05
2022-12-08T20:00:09.890Z,89.28
2022-12-08T20:02:37.877Z,89.96
2022-12-08T20:05:06.650Z,90.36
2022-12-08T20:07:34.601Z,91.60
2022-12-08T20:10:06.928Z,90.89
2022-12-08T20:12:37.657Z,91.16
2022-12-08T20:15:06.474Z,91.22
2022-12-08T20:17:33.892Z,91.27
2022-12-08T20:20:06.619Z,91.22
2022-12-08T20:22:35.773Z,91.07
2022-12-08T20:25:03.460Z,91.24
2022-12-08T20:27:33.858Z,91.10
2022-12-08T20:30:01.616Z,90.94
2022-12-08T20:32:28.914Z,91.21
2022-12-08T20:34:56.326Z,91.84
2022-12-08T20:37:23.989Z,92.20
2022-12-08T20:39:52.616Z,92.31
2022-12-08T20:42:20.387Z,92.31
2022-12-08T20:44:48.212Z,91.82
2022-12-08T20:47:16.297Z,91.36
2022-12-08T20:49:43.748Z,91.67
2022-12-08T20:52:11.323Z,92.11
2022-12-08T20:54:38.982Z,91.11
2022-12-08T20:57:07.857Z,92.09
2022-12-08T20:59:35.649Z,92.25
2022-12-08T21:02:03.330Z,92.41
2022-12-08T21:04:31.134Z,92.80
2022-12-08T21:06:59.930Z,93.65
2022-12-08T21:09:27.557Z,94.01
2022-12-08T21:11:55.035Z,94.80
2022-12-08T21:14:23.037Z,95.92
2022-12-08T21:16:51.011Z,95.77
2022-12-08T21:19:20.581Z,96.32
2022-12-08T21:21:50.788Z,96.48
2022-12-08T21:24:19.010Z,96.59
2022-12-08T21:26:46.815Z,95.18
2022-12-08T21:29:14.907Z,94.78
2022-12-08T21:31:42.773Z,94.57
2022-12-08T21:34:11.470Z,93.96
2022-12-08T21:36:39.429Z,92.67
2022-12-08T21:39:12.033Z,93.14
2022-12-08T21:41:58.730Z,93.83
2022-12-08T21:44:26.794Z,93.24
2022-12-08T21:46:54.783Z,92.95
2022-12-08T21:49:22.639Z,94.50
2022-12-08T21:51:50.100Z,93.90
2022-12-08T21:54:19.252Z,93.52
2022-12-08T21:56:48.696Z,93.65
2022-12-08T21:59:17.705Z,93.85
2022-12-08T22:01:45.415Z,93.36
2022-12-08T22:04:17.592Z,93.64
2022-12-08T22:06:45.247Z,93.83
2022-12-08T22:09:15.311Z,93.95
2022-12-08T22:11:43.650Z,93.12
2022-12-08T22:14:15.009Z,92.91
2022-12-08T22:16:44.344Z,92.96
2022-12-08T22:19:12.644Z,92.51
2022-12-08T22:21:40.358Z,92.78
2022-12-08T22:24:08.243Z,93.97
2022-12-08T22:26:36.026Z,93.29
2022-12-08T22:29:03.678Z,93.56
2022-12-08T22:31:31.492Z,92.36
2022-12-08T22:33:59.533Z,92.52
2022-12-08T22:36:28.159Z,92.72
2022-12-08T22:38:56.076Z,92.71
2022-12-08T22:41:23.900Z,93.20
2022-12-08T22:43:51.424Z,93.44
2022-12-08T22:46:21.650Z,93.86
2022-12-08T22:48:49.711Z,93.86
2022-12-08T22:51:17.828Z,93.49
2022-12-08T22:53:46.663Z,93.06
2022-12-08T22:56:16.206Z,93.17
2022-12-08T22:58:44.602Z,93.00
2022-12-08T23:01:26.152Z,92.96
2022-12-08T23:03:53.668Z,93.00
2022-12-08T23:06:21.954Z,93.42
2022-12-08T23:08:49.801Z,93.29
2022-12-08T23:11:18.096Z,92.83
2022-12-08T23:13:47.608Z,93.92
2022-12-08T23:16:15.145Z,93.85
2022-12-08T23:18:44.490Z,93.04
2022-12-08T23:21:18.493Z,93.60
2022-12-08T23:23:46.932Z,93.24
2022-12-08T23:26:23.818Z,93.44
2022-12-08T23:28:51.579Z,92.86
2022-12-08T23:31:20.202Z,92.83
2022-12-08T23:33:47.841Z,92.46
2022-12-08T23:36:16.633Z,93.04
2022-12-08T23:38:44.859Z,93.58
2022-12-08T23:41:14.266Z,93.67
2022-12-08T23:43:46.799Z,93.29
2022-12-08T23:46:16.943Z,93.51
2022-12-08T23:48:45.103Z,93.82
2022-12-08T23:51:13.503Z,93.34
2022-12-08T23:53:41.712Z,92.90
2022-12-08T23:56:12.240Z,93.42
2022-12-08T23:58:41.230Z,93.10
